createdAt,value
2022-09-22T00:01:34.939Z,100280.34
2022-09-22T00:04:07.669Z,100268.81
2022-09-22T00:06:42.332Z,100281.88
2022-09-22T00:09:13.775Z,100259.50
2022-09-22T00:11:44.719Z,100272.47
2022-09-22T00:14:16.608Z,100271.75
2022-09-22T00:16:47.764Z,100279.97
2022-09-22T00:19:19.518Z,100260.28
2022-09-22T00:21:49.141Z,100264.03
2022-09-22T00:24:18.213Z,100267.66
2022-09-22T00:26:45.419Z,100256.78
2022-09-22T00:29:15.575Z,100259.69
2022-09-22T00:31:54.645Z,100266.81
2022-09-22T00:34:25.649Z,100269.22
2022-09-22T00:36:55.128Z,100266.69
2022-09-22T00:39:25.026Z,100265.69
2022-09-22T00:41:53.239Z,100262.53
2022-09-22T00:44:34.997Z,100264.03
2022-09-22T00:47:14.155Z,100269.88
2022-09-22T00:49:53.432Z,100274.75
2022-09-22T00:52:31.196Z,100261.88
2022-09-22T00:55:03.402Z,100262.63
2022-09-22T00:57:36.517Z,100261.75
2022-09-22T01:00:09.266Z,100265.38
2022-09-22T01:02:37.313Z,100255.09
2022-09-22T01:05:05.567Z,100256.69
2022-09-22T01:07:35.305Z,100261.16
2022-09-22T01:10:02.113Z,100256.56
2022-09-22T01:12:32.062Z,100266.03
2022-09-22T01:15:19.331Z,100264.22
2022-09-22T01:18:07.961Z,100263.19
2022-09-22T01:21:13.766Z,100260.97
2022-09-22T01:24:39.943Z,100256.78
2022-09-22T01:27:50.878Z,100259.53
2022-09-22T01:30:23.171Z,100259.13
2022-09-22T01:33:16.923Z,100263.84
2022-09-22T01:36:21.662Z,100246.88
2022-09-22T01:39:03.901Z,100256.31
2022-09-22T01:41:53.802Z,100259.94
2022-09-22T01:44:31.174Z,100262.41
2022-09-22T01:47:07.339Z,100252.94
2022-09-22T01:49:40.284Z,100254.47
2022-09-22T01:52:15.663Z,100253.66
2022-09-22T01:55:02.709Z,100251.94
2022-09-22T01:57:40.456Z,100251.22
2022-09-22T02:00:10.863Z,100249.84
2022-09-22T02:02:50.033Z,100251.59
2022-09-22T02:05:30.243Z,100251.91
2022-09-22T02:08:02.407Z,100245.34
2022-09-22T02:10:40.152Z,100245.34
2022-09-22T02:13:07.420Z,100251.91
2022-09-22T02:15:34.568Z,100244.19
2022-09-22T02:18:12.657Z,100243.00
2022-09-22T02:20:40.967Z,100244.75
2022-09-22T02:23:08.407Z,100236.53
2022-09-22T02:25:39.837Z,100236.72
2022-09-22T02:28:09.233Z,100236.84
2022-09-22T02:30:36.507Z,100238.25
2022-09-22T02:33:07.026Z,100244.75
2022-09-22T02:35:40.427Z,100238.34
2022-09-22T02:38:19.269Z,100228.34
2022-09-22T02:40:57.890Z,100231.41
2022-09-22T02:43:50.574Z,100226.91
2022-09-22T02:46:24.886Z,100232.78
2022-09-22T02:49:00.738Z,100230.03
2022-09-22T02:51:30.298Z,100231.66
2022-09-22T02:54:20.888Z,100226.47
2022-09-22T02:56:48.016Z,100224.63
2022-09-22T02:59:17.199Z,100229.63
2022-09-22T03:01:44.303Z,100224.44
2022-09-22T03:04:12.569Z,100220.97
2022-09-22T03:06:42.468Z,100227.66
2022-09-22T03:09:09.322Z,100226.03
2022-09-22T03:11:36.167Z,100231.16
2022-09-22T03:14:03.261Z,100225.16
2022-09-22T03:16:30.286Z,100222.69
2022-09-22T03:18:57.116Z,100226.16
2022-09-22T03:21:25.377Z,100220.50
2022-09-22T03:23:52.218Z,100218.75
2022-09-22T03:26:21.453Z,100218.75
2022-09-22T03:28:48.201Z,100221.81
2022-09-22T03:31:15.069Z,100222.47
2022-09-22T03:33:44.028Z,100221.66
2022-09-22T03:36:10.941Z,100218.16
2022-09-22T03:38:39.347Z,100221.34
2022-09-22T03:41:12.010Z,100216.41
2022-09-22T03:43:42.106Z,100208.91
2022-09-22T03:46:09.494Z,100224.69
2022-09-22T03:48:42.933Z,100219.06
2022-09-22T03:51:12.332Z,100226.25
2022-09-22T03:53:40.519Z,100214.75
2022-09-22T03:56:10.155Z,100209.78
2022-09-22T03:58:38.379Z,100219.22
2022-09-22T04:01:08.250Z,100209.13
2022-09-22T04:03:40.402Z,100208.53
2022-09-22T04:06:08.037Z,100197.13
2022-09-22T04:08:38.644Z,100196.75
2022-09-22T04:11:07.655Z,100203.97
2022-09-22T04:13:35.330Z,100201.78
2022-09-22T04:16:04.761Z,100205.78
2022-09-22T04:18:42.862Z,100200.31
2022-09-22T04:21:17.707Z,100206.72
2022-09-22T04:23:44.870Z,100207.28
2022-09-22T04:26:13.515Z,100203.53
2022-09-22T04:28:41.395Z,100200.59
2022-09-22T04:31:11.934Z,100204.16
2022-09-22T04:33:44.530Z,100203.09
2022-09-22T04:36:11.630Z,100200.34
2022-09-22T04:38:44.134Z,100206.91
2022-09-22T04:41:14.237Z,100216.06
2022-09-22T04:43:55.152Z,100206.59
2022-09-22T04:46:28.378Z,100212.84
2022-09-22T04:48:58.675Z,100210.56
2022-09-22T04:51:25.578Z,100214.97
2022-09-22T04:53:52.583Z,100218.75
2022-09-22T04:56:21.205Z,100223.66
2022-09-22T04:58:49.075Z,100214.22
2022-09-22T05:01:15.909Z,100222.00
2022-09-22T05:03:42.909Z,100212.91
2022-09-22T05:06:09.811Z,100217.19
2022-09-22T05:08:36.714Z,100216.81
2022-09-22T05:11:03.695Z,100213.13
2022-09-22T05:13:32.209Z,100208.41
2022-09-22T05:15:59.031Z,100207.41
2022-09-22T05:18:25.844Z,100209.66
2022-09-22T05:20:52.969Z,100217.25
2022-09-22T05:23:22.288Z,100216.06
2022-09-22T05:25:49.281Z,100216.47
2022-09-22T05:28:16.261Z,100218.03
2022-09-22T05:30:44.460Z,100220.03
2022-09-22T05:33:11.458Z,100236.50
2022-09-22T05:35:38.383Z,100238.91
2022-09-22T05:38:05.246Z,100240.22
2022-09-22T05:40:33.264Z,100237.25
2022-09-22T05:43:00.142Z,100240.28
2022-09-22T05:45:27.431Z,100245.78
2022-09-22T05:47:55.736Z,100235.22
2022-09-22T05:50:22.628Z,100242.81
2022-09-22T05:52:49.904Z,100239.63
2022-09-22T05:55:17.291Z,100236.59
2022-09-22T05:57:44.128Z,100232.91
2022-09-22T06:00:12.658Z,100233.09
2022-09-22T06:02:53.089Z,100239.19
2022-09-22T06:05:22.473Z,100236.81
2022-09-22T06:07:57.445Z,100231.00
2022-09-22T06:10:24.251Z,100229.84
2022-09-22T06:12:51.061Z,100225.44
2022-09-22T06:15:17.854Z,100235.91
2022-09-22T06:17:44.629Z,100240.72
2022-09-22T06:20:11.711Z,100226.19
2022-09-22T06:23:21.482Z,100228.88
2022-09-22T06:25:48.869Z,100239.72
2022-09-22T06:28:18.215Z,100242.72
2022-09-22T06:30:45.314Z,100231.44
2022-09-22T06:33:12.034Z,100233.94
2022-09-22T06:35:41.679Z,100238.66
2022-09-22T06:38:14.044Z,100226.13
2022-09-22T06:40:42.068Z,100234.94
2022-09-22T06:43:16.055Z,100238.38
2022-09-22T06:45:58.478Z,100230.69
2022-09-22T06:48:25.366Z,100232.06
2022-09-22T06:50:54.117Z,100240.41
2022-09-22T06:53:27.451Z,100250.41
2022-09-22T06:55:59.055Z,100239.78
2022-09-22T06:58:28.543Z,100251.88
2022-09-22T07:03:47.143Z,100252.56
2022-09-22T07:06:19.901Z,100244.00
2022-09-22T07:08:49.691Z,100249.88
2022-09-22T07:11:44.904Z,100250.94
2022-09-22T07:15:03.086Z,100260.59
2022-09-22T07:18:36.523Z,100253.00
2022-09-22T07:25:21.872Z,100243.03
2022-09-22T07:27:56.529Z,100250.63
2022-09-22T07:30:40.430Z,100244.72
2022-09-22T07:33:07.670Z,100236.41
2022-09-22T07:43:45.509Z,100241.75
2022-09-22T07:46:56.819Z,100248.06
2022-09-22T07:58:53.439Z,100222.94
2022-09-22T08:01:38.295Z,100236.09
2022-09-22T08:04:06.086Z,100232.91
2022-09-22T08:06:34.767Z,100229.94
2022-09-22T08:09:01.751Z,100221.84
2022-09-22T08:11:29.464Z,100230.47
2022-09-22T08:14:01.469Z,100221.97
2022-09-22T08:16:34.161Z,100223.53
2022-09-22T08:19:04.073Z,100229.13
2022-09-22T08:21:32.759Z,100216.44
2022-09-22T08:24:03.105Z,100224.50
2022-09-22T08:26:29.952Z,100216.50
2022-09-22T08:28:58.242Z,100225.13
2022-09-22T08:31:27.158Z,100221.09
2022-09-22T08:33:58.724Z,100219.41
2022-09-22T08:36:32.288Z,100222.44
2022-09-22T08:39:00.982Z,100209.41
2022-09-22T08:41:45.099Z,100219.09
2022-09-22T08:44:21.834Z,100207.91
2022-09-22T08:46:50.623Z,100213.69
2022-09-22T08:49:28.142Z,100217.19
2022-09-22T08:52:00.563Z,100204.63
2022-09-22T08:54:30.740Z,100214.38
2022-09-22T08:57:28.361Z,100201.41
2022-09-22T09:00:05.553Z,100210.00
2022-09-22T09:02:39.583Z,100201.25
2022-09-22T09:06:03.731Z,100198.84
2022-09-22T09:09:11.839Z,100199.59
2022-09-22T09:12:09.130Z,100189.75
2022-09-22T09:15:24.547Z,100193.91
2022-09-22T09:18:01.749Z,100199.78
2022-09-22T09:20:38.605Z,100196.63
2022-09-22T09:23:17.946Z,100193.44
2022-09-22T09:26:08.064Z,100195.50
2022-09-22T09:28:41.885Z,100195.19
2022-09-22T09:32:25.637Z,100200.63
2022-09-22T09:34:56.082Z,100193.09
2022-09-22T09:37:31.059Z,100183.88
2022-09-22T09:43:46.369Z,100199.25
2022-09-22T09:46:30.326Z,100195.66
2022-09-22T09:49:08.652Z,100188.63
2022-09-22T09:55:49.483Z,100182.28
2022-09-22T09:58:16.329Z,100173.97
2022-09-22T10:00:57.381Z,100184.25
2022-09-22T10:03:32.576Z,100181.03
2022-09-22T10:06:03.868Z,100177.56
2022-09-22T10:08:34.204Z,100176.66
2022-09-22T10:11:04.630Z,100174.50
2022-09-22T10:13:35.033Z,100180.59
2022-09-22T10:16:20.570Z,100170.56
2022-09-22T10:18:50.472Z,100167.31
2022-09-22T10:21:21.105Z,100173.84
2022-09-22T10:23:49.675Z,100168.84
2022-09-22T10:26:25.528Z,100161.53
2022-09-22T10:29:16.096Z,100156.13
2022-09-22T10:32:01.997Z,100151.59
2022-09-22T10:34:32.722Z,100163.13
2022-09-22T10:37:01.669Z,100150.78
2022-09-22T10:39:39.747Z,100143.34
2022-09-22T10:42:22.659Z,100138.59
2022-09-22T10:44:52.682Z,100135.06
2022-09-22T10:47:33.464Z,100139.19
2022-09-22T10:51:12.665Z,100140.28
2022-09-22T10:54:58.063Z,100138.66
2022-09-22T10:58:21.998Z,100140.00
2022-09-22T11:05:49.813Z,100140.75
2022-09-22T11:08:26.496Z,100119.84
2022-09-22T11:11:34.751Z,100119.56
2022-09-22T11:15:33.215Z,100116.41
2022-09-22T11:19:33.706Z,100120.63
2022-09-22T11:23:03.160Z,100112.25
2022-09-22T11:26:11.716Z,100106.28
2022-09-22T11:29:19.040Z,100100.03
2022-09-22T11:32:05.469Z,100105.41
2022-09-22T11:34:55.599Z,100096.03
2022-09-22T11:37:44.792Z,100086.03
2022-09-22T11:40:29.948Z,100084.31
2022-09-22T11:43:21.516Z,100089.88
2022-09-22T11:46:00.591Z,100072.97
2022-09-22T11:48:49.943Z,100069.91
2022-09-22T11:51:51.715Z,100065.22
2022-09-22T11:54:45.843Z,100051.97
2022-09-22T11:57:18.816Z,100051.63
2022-09-22T11:59:56.168Z,100054.91
2022-09-22T12:02:33.067Z,100045.19
2022-09-22T12:05:13.166Z,100042.97
2022-09-22T12:07:53.662Z,100047.25
2022-09-22T12:10:32.902Z,100033.81
2022-09-22T12:13:01.305Z,100035.03
2022-09-22T12:15:41.185Z,100035.72
2022-09-22T12:18:17.204Z,100027.50
2022-09-22T12:20:58.652Z,100032.84
2022-09-22T12:23:40.431Z,100018.31
2022-09-22T12:26:12.307Z,100022.50
2022-09-22T12:28:43.368Z,100021.31
2022-09-22T12:31:14.626Z,100011.91
2022-09-22T12:33:53.824Z,100004.88
2022-09-22T12:36:31.817Z,100013.69
2022-09-22T12:39:18.521Z,100008.16
2022-09-22T12:42:08.698Z,100003.81
2022-09-22T12:44:46.496Z,100003.47
2022-09-22T12:47:23.495Z,100001.44
2022-09-22T12:49:57.299Z,100000.66
2022-09-22T12:53:04.856Z,100007.28
2022-09-22T12:55:34.352Z,99997.97
2022-09-22T12:58:03.211Z,99993.88
2022-09-22T13:00:35.637Z,99994.84
2022-09-22T13:03:40.483Z,99989.19
2022-09-22T13:06:53.453Z,99988.63
2022-09-22T13:09:23.103Z,99991.84
2022-09-22T13:12:42.931Z,99989.88
2022-09-22T13:15:19.680Z,99981.38
2022-09-22T13:17:49.216Z,99988.22
2022-09-22T13:20:21.054Z,99988.16
2022-09-22T13:22:48.277Z,99985.78
2022-09-22T13:25:21.992Z,99983.38
2022-09-22T13:28:02.409Z,99977.56
2022-09-22T13:30:30.766Z,99977.63
2022-09-22T13:32:57.910Z,99969.06
2022-09-22T13:35:27.526Z,99967.91
2022-09-22T13:37:57.132Z,99971.00
2022-09-22T13:40:28.630Z,99964.09
2022-09-22T13:43:02.210Z,99958.03
2022-09-22T13:45:30.926Z,99951.13
2022-09-22T13:48:09.942Z,99962.34
2022-09-22T13:50:48.728Z,99961.13
2022-09-22T13:53:20.741Z,99956.09
2022-09-22T13:55:50.957Z,99965.31
2022-09-22T13:58:29.032Z,99943.13
2022-09-22T14:01:26.332Z,99944.59
2022-09-22T14:04:38.945Z,99939.91
2022-09-22T14:07:31.072Z,99947.47
2022-09-22T14:10:04.738Z,99937.16
2022-09-22T14:15:50.330Z,99931.72
2022-09-22T14:18:25.841Z,99926.16
2022-09-22T14:20:54.785Z,99936.72
2022-09-22T14:23:28.439Z,99926.63
2022-09-22T14:26:01.474Z,99938.91
2022-09-22T14:28:36.277Z,99932.44
2022-09-22T14:31:15.197Z,99934.59
2022-09-22T14:33:44.056Z,99927.72
2022-09-22T14:36:19.058Z,99924.78
2022-09-22T14:39:01.876Z,99921.50
2022-09-22T14:41:37.146Z,99914.22
2022-09-22T14:44:23.516Z,99914.88
2022-09-22T14:46:57.773Z,99920.16
2022-09-22T14:49:41.868Z,99907.53
2022-09-22T14:52:24.363Z,99904.16
2022-09-22T14:54:55.063Z,99918.34
2022-09-22T14:57:23.134Z,99912.34
2022-09-22T14:59:57.349Z,99907.09
2022-09-22T15:02:27.868Z,99896.66
2022-09-22T15:05:03.621Z,99894.38
2022-09-22T15:07:35.404Z,99900.66
2022-09-22T15:10:07.285Z,99896.53
2022-09-22T15:12:38.636Z,99889.09
2022-09-22T15:15:21.783Z,99883.81
2022-09-22T15:17:51.010Z,99885.13
2022-09-22T15:20:19.634Z,99882.75
2022-09-22T15:22:46.970Z,99889.38
2022-09-22T15:25:16.365Z,99891.72
2022-09-22T15:27:43.624Z,99878.31
2022-09-22T15:30:15.223Z,99878.47
2022-09-22T15:32:45.389Z,99876.97
2022-09-22T15:35:13.198Z,99875.81
2022-09-22T15:38:38.011Z,99874.38
2022-09-22T15:41:43.118Z,99871.53
2022-09-22T15:44:41.022Z,99876.19
2022-09-22T15:47:21.282Z,99865.59
2022-09-22T15:49:48.518Z,99867.53
2022-09-22T15:52:46.984Z,99863.63
2022-09-22T15:58:43.325Z,99859.63
2022-09-22T16:01:10.849Z,99860.63
2022-09-22T16:03:41.395Z,99856.81
2022-09-22T16:06:14.877Z,99860.94
2022-09-22T16:08:45.699Z,99867.66
2022-09-22T16:11:16.057Z,99861.03
2022-09-22T16:13:44.719Z,99862.00
2022-09-22T16:16:12.297Z,99856.75
2022-09-22T16:18:39.617Z,99862.47
2022-09-22T16:21:17.302Z,99850.56
2022-09-22T16:23:44.205Z,99859.47
2022-09-22T16:26:46.225Z,99860.44
2022-09-22T16:29:24.907Z,99857.06
2022-09-22T16:31:52.072Z,99861.84
2022-09-22T16:34:19.250Z,99857.69
2022-09-22T16:36:57.215Z,99861.63
2022-09-22T16:40:53.453Z,99867.81
2022-09-22T16:43:56.735Z,99856.84
2022-09-22T16:46:42.263Z,99865.56
2022-09-22T16:49:14.628Z,99868.69
2022-09-22T16:51:47.052Z,99867.25
2022-09-22T16:54:29.785Z,99864.53
2022-09-22T16:57:03.233Z,99863.19
2022-09-22T16:59:30.190Z,99861.84
2022-09-22T17:01:59.045Z,99865.34
2022-09-22T17:04:26.152Z,99865.53
2022-09-22T17:06:53.070Z,99865.47
2022-09-22T17:09:20.330Z,99867.84
2022-09-22T17:11:50.786Z,99865.66
2022-09-22T17:14:20.206Z,99870.56
2022-09-22T17:16:49.264Z,99866.53
2022-09-22T17:27:00.501Z,99859.53
2022-09-22T17:29:30.605Z,99860.50
2022-09-22T17:32:14.249Z,99858.91
2022-09-22T17:34:49.972Z,99855.47
2022-09-22T17:37:40.546Z,99855.63
2022-09-22T17:40:30.132Z,99866.41
2022-09-22T17:43:29.298Z,99866.56
2022-09-22T18:00:55.968Z,99873.84
2022-09-22T18:13:12.724Z,99870.88
2022-09-22T18:16:22.583Z,99873.97
2022-09-22T18:19:06.194Z,99880.59
2022-09-22T18:21:34.389Z,99873.81
2022-09-22T18:24:02.198Z,99874.59
2022-09-22T18:26:29.443Z,99876.63
2022-09-22T18:28:58.234Z,99869.72
2022-09-22T18:31:30.879Z,99877.13
2022-09-22T18:34:00.505Z,99879.78
2022-09-22T18:36:29.759Z,99882.41
2022-09-22T18:38:56.743Z,99886.16
2022-09-22T18:41:24.835Z,99884.91
2022-09-22T18:43:52.160Z,99882.06
2022-09-22T18:46:22.218Z,99882.34
2022-09-22T18:48:51.668Z,99881.44
2022-09-22T18:51:18.588Z,99883.38
2022-09-22T18:53:45.964Z,99878.00
2022-09-22T18:56:25.513Z,99883.47
2022-09-22T18:58:56.330Z,99880.41
2022-09-22T19:01:26.813Z,99879.00
2022-09-22T19:03:56.323Z,99886.84
2022-09-22T19:06:25.964Z,99884.66
2022-09-22T19:08:52.969Z,99897.59
2022-09-22T19:11:20.494Z,99890.44
2022-09-22T19:13:50.255Z,99905.31
2022-09-22T19:16:17.350Z,99899.81
2022-09-22T19:18:44.272Z,99901.81
2022-09-22T19:21:14.429Z,99900.47
2022-09-22T19:23:41.635Z,99906.03
2022-09-22T19:26:08.957Z,99907.34
2022-09-22T19:28:36.090Z,99896.22
2022-09-22T19:31:03.116Z,99905.78
2022-09-22T19:33:30.140Z,99906.06
2022-09-22T19:35:57.612Z,99897.81
2022-09-22T19:38:25.914Z,99904.84
2022-09-22T19:40:53.132Z,99907.13
2022-09-22T19:43:20.083Z,99905.19
2022-09-22T19:45:47.035Z,99890.28
2022-09-22T19:48:17.054Z,99904.53
2022-09-22T19:50:44.851Z,99902.63
2022-09-22T19:53:11.860Z,99903.34
2022-09-22T19:55:40.887Z,99891.94
2022-09-22T19:58:08.233Z,99893.38
2022-09-22T20:00:35.851Z,99899.06
2022-09-22T20:03:03.551Z,99899.88
2022-09-22T20:05:34.650Z,99890.97
2022-09-22T20:08:02.449Z,99893.72
2022-09-22T20:10:30.202Z,99893.00
2022-09-22T20:12:59.490Z,99889.78
2022-09-22T20:15:28.282Z,99897.47
2022-09-22T20:17:55.842Z,99893.31
2022-09-22T20:20:24.964Z,99889.28
2022-09-22T20:22:58.432Z,99889.09
2022-09-22T20:25:32.709Z,99888.72
2022-09-22T20:28:01.804Z,99890.50
2022-09-22T20:30:33.808Z,99889.09
2022-09-22T20:33:05.709Z,99887.06
2022-09-22T20:35:34.169Z,99882.19
2022-09-22T20:38:03.342Z,99890.75
2022-09-22T21:19:49.165Z,99889.03
2022-09-22T21:24:03.069Z,99876.19
2022-09-22T21:26:34.234Z,99874.53
